Time;durP1;ratioP1;P1;durP2;ratioP2;P2;SDS_P1;SDS_P2;PMS_P1;PMS_P2;Temp;Humidity;BMP_temperature;BMP_pressure;BME280_temperature;BME280_humidity;BME280_pressure;Samples;Min_cycle;Max_cycle;Signal;HPM_P1;HPM_P2
2020/12/30 00:00:40;;;;;;;23.52;9.93;;;;;;;4.34;87.71;99304.63;1694798;83;21668;-55
2020/12/30 00:03:08;;;;;;;26.57;8.90;;;;;;;4.45;87.39;99310.50;1639569;86;21604;-55
2020/12/30 00:05:36;;;;;;;15.53;6.28;;;;;;;4.45;87.48;99314.54;1718433;83;21158;-55
2020/12/30 00:08:05;;;;;;;10.95;6.15;;;;;;;4.33;87.87;99314.59;1721222;83;21193;-55
2020/12/30 00:10:33;;;;;;;21.73;5.70;;;;;;;4.37;87.72;99329.75;1647264;86;21207;-55
2020/12/30 00:13:01;;;;;;;13.03;6.00;;;;;;;4.35;87.73;99327.31;1698810;83;21680;-55
2020/12/30 00:15:29;;;;;;;11.93;4.78;;;;;;;4.26;88.08;99330.09;1664066;85;22063;-56
2020/12/30 00:17:57;;;;;;;16.52;8.83;;;;;;;4.25;88.36;99327.65;1655584;86;21143;-56
2020/12/30 00:20:25;;;;;;;18.62;6.55;;;;;;;4.36;87.96;99329.45;1714207;79;61874;-72
2020/12/30 00:22:53;;;;;;;15.30;8.55;;;;;;;4.33;88.06;99331.28;1723146;83;21729;-72
2020/12/30 00:25:21;;;;;;;11.70;5.95;;;;;;;4.26;88.34;99330.61;1739986;81;21149;-73
2020/12/30 00:27:48;;;;;;;13.25;5.05;;;;;;;4.31;88.27;99335.58;1754093;81;21631;-72
2020/12/30 00:30:17;;;;;;;14.90;7.83;;;;;;;4.40;87.95;99339.52;1686986;84;21538;-73
2020/12/30 00:32:46;;;;;;;13.83;6.25;;;;;;;4.37;88.09;99327.88;1717070;83;21157;-73
2020/12/30 00:35:15;;;;;;;16.42;7.70;;;;;;;4.34;88.35;99324.31;1704140;84;21657;-73
2020/12/30 00:37:43;;;;;;;6.95;5.08;;;;;;;4.48;87.95;99314.05;1703239;84;21605;-73
2020/12/30 00:40:12;;;;;;;14.63;6.45;;;;;;;4.47;87.86;99318.62;1719783;83;21610;-73
2020/12/30 00:42:40;;;;;;;9.15;6.03;;;;;;;4.36;88.23;99317.33;1684750;84;21138;-73
2020/12/30 00:45:09;;;;;;;6.90;4.70;;;;;;;4.37;88.26;99317.09;1701785;84;21310;-73
2020/12/30 00:47:37;;;;;;;8.08;4.35;;;;;;;4.42;88.03;99308.30;1698333;83;21655;-73
2020/12/30 00:50:06;;;;;;;11.95;5.17;;;;;;;4.33;88.29;99313.24;1756820;81;21699;-73
2020/12/30 00:52:34;;;;;;;7.03;4.08;;;;;;;4.29;88.47;99324.20;1677976;84;21189;-72
2020/12/30 00:55:04;;;;;;;7.42;4.45;;;;;;;4.35;88.30;99330.00;1689644;84;21152;-72
2020/12/30 00:57:41;;;;;;;12.68;4.90;;;;;;;4.18;88.20;99290.05;1807814;79;21275;-56
2020/12/30 01:00:09;;;;;;;10.08;4.45;;;;;;;4.30;88.42;99327.73;1766788;80;21192;-56
2020/12/30 01:03:04;;;;;;;7.20;4.20;;;;;;;4.36;88.48;99316.80;1761494;79;22882;-56
2020/12/30 01:05:32;;;;;;;4.37;3.05;;;;;;;4.33;88.43;99310.55;1734011;82;21710;-56
2020/12/30 01:08:00;;;;;;;6.35;3.58;;;;;;;4.22;88.92;99322.19;1752124;82;21137;-55
2020/12/30 01:10:28;;;;;;;5.47;3.58;;;;;;;4.29;88.71;99324.73;1746713;82;21585;-56
2020/12/30 01:12:56;;;;;;;5.70;3.50;;;;;;;4.34;88.61;99321.63;1736064;82;21161;-57
2020/12/30 01:15:23;;;;;;;7.05;3.08;;;;;;;4.32;88.67;99323.72;1667687;85;21200;-56
2020/12/30 01:17:52;;;;;;;10.38;3.58;;;;;;;4.37;88.68;99327.05;1701513;84;21210;-55
2020/12/30 01:20:20;;;;;;;9.75;3.58;;;;;;;4.45;88.46;99332.88;1700816;84;21196;-56
2020/12/30 01:22:48;;;;;;;4.40;2.60;;;;;;;4.38;88.71;99330.86;1678590;84;21176;-56
2020/12/30 01:25:16;;;;;;;6.95;3.95;;;;;;;4.44;88.65;99337.98;1690665;84;21187;-56
2020/12/30 01:27:44;;;;;;;8.63;3.20;;;;;;;4.56;88.33;99340.63;1696688;84;21148;-57
2020/12/30 01:30:12;;;;;;;8.85;4.15;;;;;;;4.53;88.48;99334.38;1663082;85;21623;-56
2020/12/30 01:32:41;;;;;;;7.20;4.35;;;;;;;4.46;88.82;99335.84;1663474;85;21339;-55
2020/12/30 01:35:09;;;;;;;6.92;3.27;;;;;;;4.57;88.62;99340.09;1701936;84;21312;-56
2020/12/30 01:37:37;;;;;;;3.62;2.80;;;;;;;4.67;88.35;99340.27;1691954;84;21180;-56
2020/12/30 01:40:05;;;;;;;5.50;3.52;;;;;;;4.60;88.73;99348.52;1695010;84;21157;-55
2020/12/30 01:42:46;;;;;;;5.40;3.02;;;;;;;4.65;88.86;99349.12;1691683;84;21189;-56
2020/12/30 01:45:14;;;;;;;5.50;3.20;;;;;;;4.79;88.42;99336.44;1691424;84;21711;-56
2020/12/30 01:47:44;;;;;;;7.03;3.62;;;;;;;4.80;88.55;99335.91;1680229;84;21168;-55
2020/12/30 01:50:14;;;;;;;4.47;3.58;;;;;;;4.79;88.77;99335.61;1689232;84;21600;-56
2020/12/30 01:52:42;;;;;;;5.12;3.45;;;;;;;4.86;88.74;99329.53;1679420;84;21200;-56
2020/12/30 01:55:11;;;;;;;7.70;4.30;;;;;;;4.98;88.41;99318.14;1695962;84;21718;-56
2020/12/30 01:57:39;;;;;;;8.08;4.90;;;;;;;5.00;88.50;99320.05;1655526;85;21180;-55
2020/12/30 02:00:07;;;;;;;5.00;3.47;;;;;;;5.00;88.71;99317.36;1685639;84;21364;-55
2020/12/30 02:02:37;;;;;;;10.13;3.92;;;;;;;5.12;88.35;99314.05;1699682;83;21165;-56
2020/12/30 02:05:07;;;;;;;25.75;4.47;;;;;;;5.19;88.12;99306.60;1682449;84;21206;-56
2020/12/30 02:07:35;;;;;;;5.80;4.20;;;;;;;5.14;88.29;99311.91;1659697;86;21180;-56
2020/12/30 02:10:03;;;;;;;11.12;3.77;;;;;;;5.20;88.21;99306.90;1640310;85;21320;-55
2020/12/30 02:12:30;;;;;;;14.55;5.08;;;;;;;5.30;87.86;99309.74;1683936;84;21138;-55
2020/12/30 02:14:58;;;;;;;20.88;5.80;;;;;;;5.27;87.94;99306.72;1686948;84;21190;-56
2020/12/30 02:17:26;;;;;;;11.43;6.42;;;;;;;5.16;88.06;99307.10;1691012;84;21193;-57
2020/12/30 02:19:54;;;;;;;16.42;6.70;;;;;;;5.20;88.00;99306.08;1682791;84;21353;-56
2020/12/30 02:22:21;;;;;;;27.42;6.22;;;;;;;5.26;87.67;99306.42;1692810;84;21272;-56
2020/12/30 02:24:49;;;;;;;21.62;7.70;;;;;;;5.19;87.84;99313.34;1678572;84;21576;-55
2020/12/30 02:27:17;;;;;;;15.65;5.47;;;;;;;5.10;88.08;99309.41;1663350;86;21998;-56
2020/12/30 02:29:45;;;;;;;18.52;6.25;;;;;;;5.14;87.96;99309.21;1699362;84;21175;-56
2020/12/30 02:32:13;;;;;;;33.28;6.22;;;;;;;5.20;87.71;99310.95;1679749;84;21217;-55
2020/12/30 02:34:41;;;;;;;18.98;6.12;;;;;;;5.16;87.88;99299.53;1697993;84;21177;-55
2020/12/30 02:37:09;;;;;;;15.70;5.50;;;;;;;5.13;88.11;99302.20;1671621;84;21184;-55
2020/12/30 02:39:36;;;;;;;18.12;6.45;;;;;;;5.22;87.94;99305.28;1697053;84;21596;-55
2020/12/30 02:42:05;;;;;;;28.87;6.45;;;;;;;5.27;87.68;99306.72;1678364;84;21600;-55
2020/12/30 02:44:32;;;;;;;23.92;6.75;;;;;;;5.23;87.92;99308.28;1682920;84;21214;-55
2020/12/30 02:47:00;;;;;;;19.50;6.40;;;;;;;5.18;88.09;99310.88;1669594;86;21177;-55
2020/12/30 02:49:28;;;;;;;20.15;6.35;;;;;;;5.27;87.74;99303.49;1682309;84;21143;-56
2020/12/30 02:51:56;;;;;;;35.92;7.35;;;;;;;5.35;87.53;99309.00;1678295;84;21197;-55
2020/12/30 02:54:24;;;;;;;33.70;7.37;;;;;;;5.30;87.72;99309.74;1677628;84;21133;-56
2020/12/30 02:56:52;;;;;;;17.27;8.60;;;;;;;5.24;87.95;99303.99;1690445;84;21133;-56
2020/12/30 02:59:20;;;;;;;16.52;8.80;;;;;;;5.29;87.90;99301.34;1674797;84;21185;-56
2020/12/30 03:01:48;;;;;;;28.17;8.28;;;;;;;5.39;87.62;99295.27;1649307;86;21603;-56
2020/12/30 03:04:16;;;;;;;15.90;8.20;;;;;;;5.35;87.83;99294.95;1698900;83;21519;-56
2020/12/30 03:06:43;;;;;;;14.45;9.18;;;;;;;5.33;88.11;99301.14;1708637;83;21229;-56
2020/12/30 03:09:11;;;;;;;15.72;9.38;;;;;;;5.45;87.87;99291.07;1713116;83;21179;-56
2020/12/30 03:11:39;;;;;;;24.30;11.22;;;;;;;5.49;87.77;99289.48;1717644;83;21195;-56
2020/12/30 03:14:07;;;;;;;20.68;10.98;;;;;;;5.46;88.08;99285.94;1713126;82;21163;-56
2020/12/30 03:16:35;;;;;;;27.13;11.97;;;;;;;5.51;88.05;99283.31;1675954;85;21824;-56
2020/12/30 03:21:56;;;;;;;17.32;9.80;;;;;;;5.57;87.94;99280.66;1871194;76;22942;-56
2020/12/30 03:24:24;;;;;;;15.38;8.68;;;;;;;5.50;88.08;99283.02;1841221;77;21156;-56
2020/12/30 03:26:52;;;;;;;21.35;9.03;;;;;;;5.61;87.77;99285.85;1859750;77;21144;-56
2020/12/30 03:29:20;;;;;;;19.23;10.03;;;;;;;5.58;87.88;99283.66;1822456;78;21580;-56
2020/12/30 03:31:48;;;;;;;17.40;9.73;;;;;;;5.51;88.14;99277.91;1816254;78;21145;-56
2020/12/30 03:34:15;;;;;;;17.30;8.53;;;;;;;5.63;87.90;99271.05;1802711;78;21195;-56
2020/12/30 03:36:44;;;;;;;22.25;9.53;;;;;;;5.68;87.68;99277.85;1802892;78;21154;-56
2020/12/30 03:39:12;;;;;;;16.55;10.63;;;;;;;5.65;87.88;99272.95;1804496;78;21692;-57
2020/12/30 03:41:39;;;;;;;15.32;10.82;;;;;;;5.68;87.85;99271.10;1808650;78;21178;-56
2020/12/30 03:44:07;;;;;;;16.70;10.60;;;;;;;5.76;87.70;99263.92;1822604;78;21133;-56
2020/12/30 03:46:35;;;;;;;19.37;11.57;;;;;;;5.74;87.79;99257.94;1817294;78;21447;-56
2020/12/30 03:49:02;;;;;;;14.75;10.45;;;;;;;5.70;88.03;99257.36;1820747;78;21278;-56
2020/12/30 03:51:31;;;;;;;16.30;10.85;;;;;;;5.76;87.91;99265.80;1818524;78;21141;-56
2020/12/30 03:53:58;;;;;;;16.80;11.30;;;;;;;5.83;87.60;99257.79;1759600;80;21187;-56
2020/12/30 03:56:26;;;;;;;16.95;11.63;;;;;;;5.80;87.81;99260.18;1776937;80;21690;-56
2020/12/30 03:58:54;;;;;;;16.07;11.35;;;;;;;5.74;88.02;99263.89;1793153;80;21290;-56
2020/12/30 04:01:24;;;;;;;15.83;10.20;;;;;;;5.83;87.74;99265.89;1797290;78;21508;-55
2020/12/30 04:03:52;;;;;;;13.75;10.38;;;;;;;5.85;87.57;99270.50;1793146;80;21165;-55
2020/12/30 04:06:20;;;;;;;15.40;11.20;;;;;;;5.77;87.86;99268.27;1792614;78;21181;-56
2020/12/30 04:08:48;;;;;;;15.45;11.78;;;;;;;5.82;87.81;99275.59;1800987;78;21603;-57
2020/12/30 04:11:16;;;;;;;16.15;11.30;;;;;;;5.88;87.56;99281.39;1818849;78;21152;-56
2020/12/30 04:13:46;;;;;;;16.77;11.10;;;;;;;5.82;87.69;99276.94;1823210;78;21164;-56
2020/12/30 04:16:22;;;;;;;15.08;10.90;;;;;;;5.76;87.92;99273.38;1824124;78;21144;-55
2020/12/30 04:18:51;;;;;;;15.73;12.10;;;;;;;5.83;87.59;99275.88;1820428;78;21561;-57
2020/12/30 04:21:23;;;;;;;16.97;11.48;;;;;;;5.81;87.53;99274.77;1824037;78;21180;-55
2020/12/30 04:23:54;;;;;;;15.23;11.55;;;;;;;5.70;87.88;99275.73;1791986;80;21623;-56
2020/12/30 04:26:22;;;;;;;15.43;10.95;;;;;;;5.69;87.92;99278.67;1784109;80;21118;-55
2020/12/30 04:28:49;;;;;;;17.25;12.95;;;;;;;5.71;87.71;99274.64;1779167;80;21604;-56
2020/12/30 04:31:18;;;;;;;14.68;10.95;;;;;;;5.62;87.87;99272.11;1788579;78;21166;-56
2020/12/30 04:33:46;;;;;;;12.20;9.65;;;;;;;5.64;87.83;99263.74;1760716;80;21152;-56
2020/12/30 04:36:14;;;;;;;22.30;13.30;;;;;;;5.71;87.56;99265.20;1812313;78;21271;-56
2020/12/30 04:38:42;;;;;;;15.28;11.53;;;;;;;5.64;87.73;99271.84;1793452;78;21137;-56
2020/12/30 04:41:12;;;;;;;16.90;12.53;;;;;;;5.61;87.95;99271.00;1791917;79;21159;-55
2020/12/30 04:43:44;;;;;;;18.23;12.68;;;;;;;5.72;87.55;99274.94;1767212;80;21145;-56
2020/12/30 04:46:13;;;;;;;24.10;13.18;;;;;;;5.76;87.44;99267.15;1780236;80;21703;-56
2020/12/30 04:48:41;;;;;;;16.20;12.33;;;;;;;5.68;87.75;99261.65;1804119;79;21315;-56
2020/12/30 04:51:10;;;;;;;20.23;14.25;;;;;;;5.73;87.65;99264.95;1807548;79;21601;-55
2020/12/30 04:53:38;;;;;;;21.33;13.40;;;;;;;5.80;87.41;99266.41;1814607;79;21644;-56
2020/12/30 04:56:05;;;;;;;22.42;14.20;;;;;;;5.75;87.51;99271.73;1807193;79;21117;-55
2020/12/30 04:58:34;;;;;;;19.75;14.10;;;;;;;5.69;87.72;99279.49;1798853;79;21163;-57
2020/12/30 05:01:02;;;;;;;18.25;13.90;;;;;;;5.74;87.56;99277.41;1728734;80;21136;-55
2020/12/30 05:03:31;;;;;;;18.12;13.43;;;;;;;5.81;87.37;99280.17;1784303;80;21173;-56
2020/12/30 05:06:05;;;;;;;18.45;13.60;;;;;;;5.77;87.53;99279.59;1787979;79;21205;-56
2020/12/30 05:08:34;;;;;;;16.75;12.58;;;;;;;5.73;87.81;99278.45;1765177;81;21165;-56
2020/12/30 05:11:02;;;;;;;18.52;13.53;;;;;;;5.80;87.53;99281.26;1771016;80;21148;-57
2020/12/30 05:13:31;;;;;;;19.25;13.95;;;;;;;5.82;87.42;99282.34;1809666;78;21133;-55
2020/12/30 05:15:59;;;;;;;19.23;14.05;;;;;;;5.72;87.79;99289.79;1792495;78;21186;-57
2020/12/30 05:18:26;;;;;;;20.40;14.63;;;;;;;5.77;87.76;99289.87;1806273;78;21197;-56
2020/12/30 05:20:54;;;;;;;19.67;13.95;;;;;;;5.85;87.48;99289.94;1775322;79;21153;-55
2020/12/30 05:23:38;;;;;;;21.35;15.70;;;;;;;5.79;87.61;99289.07;1751034;78;21584;31
2020/12/30 05:26:06;;;;;;;19.32;14.65;;;;;;;5.74;87.83;99287.64;1680943;84;21168;-65
2020/12/30 05:28:36;;;;;;;19.20;14.30;;;;;;;5.85;87.51;99295.34;1705590;83;21215;-65
2020/12/30 05:31:04;;;;;;;22.82;16.40;;;;;;;5.88;87.39;99298.95;1694191;84;21172;-65
2020/12/30 05:33:32;;;;;;;21.07;15.15;;;;;;;5.79;87.59;99297.17;1700678;84;21133;-65
2020/12/30 05:36:00;;;;;;;19.92;15.15;;;;;;;5.82;87.53;99303.95;1660529;85;21179;-65
2020/12/30 05:38:28;;;;;;;21.87;15.45;;;;;;;5.89;87.27;99304.61;1697462;84;21192;-65
2020/12/30 05:40:56;;;;;;;22.75;16.85;;;;;;;5.83;87.39;99303.71;1699475;84;21632;-65
2020/12/30 05:43:24;;;;;;;22.13;16.93;;;;;;;5.76;87.69;99317.11;1678859;84;21109;-66
2020/12/30 05:45:53;;;;;;;24.32;17.30;;;;;;;5.83;87.52;99312.34;1690411;83;21660;-65
2020/12/30 05:48:23;;;;;;;24.20;17.80;;;;;;;5.89;87.20;99306.78;1684686;84;21192;-65
2020/12/30 05:50:55;;;;;;;25.62;18.37;;;;;;;5.82;87.40;99303.95;1708085;84;21627;-65
2020/12/30 05:53:24;;;;;;;23.47;17.65;;;;;;;5.78;87.60;99308.22;1692246;84;21211;-65
2020/12/30 05:55:55;;;;;;;26.90;19.17;;;;;;;5.84;87.27;99301.30;1715382;83;21160;-63
2020/12/30 05:58:23;;;;;;;28.55;16.95;;;;;;;5.82;87.23;99306.12;1698504;84;21167;-64
2020/12/30 06:00:50;;;;;;;25.35;18.30;;;;;;;5.73;87.46;99308.17;1686409;84;21191;-64
2020/12/30 06:03:24;;;;;;;23.87;16.37;;;;;;;5.74;87.40;99309.25;1693391;84;21309;-64
2020/12/30 06:05:52;;;;;;;26.30;16.97;;;;;;;5.79;87.18;99315.26;1680105;84;21164;-63
2020/12/30 06:08:20;;;;;;;23.32;16.40;;;;;;;5.70;87.35;99310.02;1694468;84;21177;-62
2020/12/30 06:10:48;;;;;;;19.07;15.70;;;;;;;5.65;87.52;99310.77;1689676;83;21499;-64
2020/12/30 06:13:16;;;;;;;21.15;14.65;;;;;;;5.75;87.16;99307.37;1688958;85;21274;-63
2020/12/30 06:15:44;;;;;;;23.45;17.85;;;;;;;5.75;87.14;99314.13;1680359;83;21152;-63
2020/12/30 06:18:12;;;;;;;22.25;17.02;;;;;;;5.67;87.41;99309.18;1668844;84;21164;-64
2020/12/30 06:20:40;;;;;;;23.20;16.48;;;;;;;5.68;87.44;99317.02;1695968;84;22064;-64
2020/12/30 06:23:12;;;;;;;26.48;15.72;;;;;;;5.75;87.17;99319.00;1693494;84;21151;-64
2020/12/30 06:25:44;;;;;;;21.50;15.55;;;;;;;5.68;87.36;99308.09;1707761;82;21206;-63
2020/12/30 06:28:29;;;;;;;19.55;15.18;;;;;;;5.65;87.55;99315.34;1708243;82;21124;-64
2020/12/30 06:30:57;;;;;;;20.27;13.38;;;;;;;5.75;87.15;99308.19;1709068;82;21631;-55
2020/12/30 06:33:25;;;;;;;18.30;13.83;;;;;;;5.73;87.20;99306.81;1717841;81;21570;-55
2020/12/30 06:35:56;;;;;;;17.70;13.60;;;;;;;5.63;87.42;99305.34;1722506;82;21183;-55
2020/12/30 06:38:26;;;;;;;15.50;12.05;;;;;;;5.67;87.36;99303.78;1731340;81;21149;-55
2020/12/30 06:41:02;;;;;;;37.00;13.53;;;;;;;5.74;87.04;99297.09;1736079;82;21590;-55
2020/12/30 06:43:42;;;;;;;23.27;12.00;;;;;;;5.69;87.26;99294.88;1730187;81;21153;-54
2020/12/30 06:46:11;;;;;;;16.62;12.40;;;;;;;5.60;87.55;99290.44;1739525;81;21216;-55
2020/12/30 06:48:58;;;;;;;15.28;11.97;;;;;;;5.66;87.44;99288.63;1730683;82;21168;-55
2020/12/30 06:51:30;;;;;;;22.02;12.85;;;;;;;5.73;87.17;99290.61;1726992;82;21153;-55
2020/12/30 06:53:59;;;;;;;18.98;12.73;;;;;;;5.66;87.38;99290.80;1711765;82;21184;-54
2020/12/30 06:56:46;;;;;;;15.63;12.75;;;;;;;5.62;87.58;99285.61;1740789;81;21173;-55
2020/12/30 06:59:32;;;;;;;22.42;14.60;;;;;;;5.71;87.28;99285.98;1721072;82;21642;-55
2020/12/30 07:02:04;;;;;;;24.00;20.02;;;;;;;5.71;87.22;99288.68;1726300;81;21307;-54
2020/12/30 07:04:36;;;;;;;15.38;11.93;;;;;;;5.56;87.63;99286.63;1726157;81;21181;-55
2020/12/30 07:07:20;;;;;;;20.05;12.58;;;;;;;5.59;87.50;99281.25;1728783;82;21112;-55
2020/12/30 07:09:48;;;;;;;21.42;12.82;;;;;;;5.63;87.33;99288.61;1730165;82;21561;-55
2020/12/30 07:12:16;;;;;;;16.57;12.13;;;;;;;5.55;87.70;99292.27;1730879;82;21580;-55
2020/12/30 07:14:43;;;;;;;19.60;12.60;;;;;;;5.59;87.62;99289.34;1726434;81;21210;-55
2020/12/30 07:17:11;;;;;;;18.75;12.00;;;;;;;5.67;87.43;99293.77;1732966;82;21172;-55
2020/12/30 07:19:42;;;;;;;14.55;10.80;;;;;;;5.63;87.60;99292.66;1706680;82;21286;-54
2020/12/30 07:22:13;;;;;;;19.15;12.00;;;;;;;5.63;87.74;99287.78;1714370;81;21152;-55
2020/12/30 07:24:47;;;;;;;14.40;10.43;;;;;;;5.77;87.39;99295.80;1734777;81;21209;-55
2020/12/30 07:27:16;;;;;;;20.57;12.90;;;;;;;5.71;87.48;99288.68;1705687;82;21146;-55
2020/12/30 07:29:46;;;;;;;20.45;12.90;;;;;;;5.62;87.72;99289.66;1721971;82;21201;-54
2020/12/30 07:32:15;;;;;;;15.78;12.05;;;;;;;5.65;87.69;99292.39;1702169;84;21453;-55
2020/12/30 07:34:45;;;;;;;16.12;12.10;;;;;;;5.68;87.51;99290.53;1700957;84;21238;-54
2020/12/30 07:37:13;;;;;;;16.80;12.80;;;;;;;5.59;87.84;99294.22;1696701;84;21180;-55
2020/12/30 07:39:45;;;;;;;17.12;12.00;;;;;;;5.57;87.89;99294.16;1663646;84;21582;-55
2020/12/30 07:42:14;;;;;;;23.77;14.23;;;;;;;5.63;87.61;99292.66;1701683;84;21181;-55
2020/12/30 07:44:54;;;;;;;21.55;14.75;;;;;;;5.60;87.80;99291.78;1701389;84;21169;-55
2020/12/30 07:47:25;;;;;;;19.92;14.90;;;;;;;5.53;88.00;99289.27;1704596;84;21137;-55
2020/12/30 07:50:00;;;;;;;21.05;14.18;;;;;;;5.62;87.77;99293.72;1704502;84;21190;-55
2020/12/30 07:52:28;;;;;;;19.02;14.40;;;;;;;5.66;87.61;99295.38;1679672;84;21173;-55
2020/12/30 07:54:57;;;;;;;19.15;14.60;;;;;;;5.57;87.91;99303.09;1671433;84;21206;-55
2020/12/30 07:57:25;;;;;;;18.23;13.65;;;;;;;5.58;87.89;99304.73;1682740;84;21213;-55
2020/12/30 07:59:54;;;;;;;21.15;14.10;;;;;;;5.67;87.55;99298.38;1680117;84;21129;-55
2020/12/30 08:02:24;;;;;;;24.30;14.70;;;;;;;5.62;87.70;99298.30;1676798;85;21193;-56
2020/12/30 08:05:01;;;;;;;22.27;15.10;;;;;;;5.54;87.97;99307.64;1694315;84;21189;-55
2020/12/30 08:07:31;;;;;;;25.35;16.37;;;;;;;5.65;87.65;99309.41;1692478;84;21612;-55
2020/12/30 08:10:00;;;;;;;57.67;15.95;;;;;;;5.69;87.54;99313.25;1686383;84;21350;-55
2020/12/30 08:12:28;;;;;;;19.77;13.85;;;;;;;5.63;87.76;99302.64;1701708;84;21191;-55
2020/12/30 08:14:56;;;;;;;21.02;15.18;;;;;;;5.70;87.69;99306.80;1695294;84;21177;-54
2020/12/30 08:17:24;;;;;;;34.83;15.20;;;;;;;5.80;87.29;99301.52;1692979;84;21568;-55
2020/12/30 08:19:52;;;;;;;31.52;15.18;;;;;;;5.76;87.38;99299.03;1676699;85;21169;-56
2020/12/30 08:22:22;;;;;;;19.65;14.58;;;;;;;5.70;87.55;99307.33;1695350;84;21180;-56
2020/12/30 08:24:55;;;;;;;31.55;14.70;;;;;;;5.76;87.33;99303.08;1704227;84;21220;-55
2020/12/30 08:27:30;;;;;;;48.65;18.10;;;;;;;5.79;87.12;99308.50;1704393;84;21333;-55
2020/12/30 08:30:01;;;;;;;28.23;19.65;;;;;;;5.73;87.33;99304.94;1712188;82;21151;-55
2020/12/30 08:32:35;;;;;;;24.32;15.98;;;;;;;5.69;87.47;99307.85;1721150;81;21581;-55
2020/12/30 08:35:19;;;;;;;28.15;17.70;;;;;;;5.80;87.04;99308.27;1725362;83;21160;-55
2020/12/30 08:38:12;;;;;;;52.15;19.75;;;;;;;5.79;86.96;99304.45;1734974;81;21180;-55
2020/12/30 08:40:41;;;;;;;28.80;16.65;;;;;;;5.67;87.33;99304.56;1724354;82;21667;-54
2020/12/30 08:43:43;;;;;;;38.83;23.73;;;;;;;5.70;87.30;99302.74;1725842;82;21104;-55
2020/12/30 08:46:23;;;;;;;33.95;17.57;;;;;;;5.75;87.32;99292.52;1739419;81;21219;-55
2020/12/30 08:48:51;;;;;;;29.25;20.08;;;;;;;5.67;87.68;99291.63;1733787;81;21148;-55
2020/12/30 08:51:35;;;;;;;29.90;18.32;;;;;;;5.72;87.65;99296.55;1719148;83;21171;-55
2020/12/30 08:54:15;;;;;;;20.72;13.95;;;;;;;5.82;87.46;99291.80;1715706;82;21718;-56
2020/12/30 08:56:44;;;;;;;24.85;16.02;;;;;;;5.78;87.75;99290.13;1719825;83;21188;-56
2020/12/30 08:59:22;;;;;;;23.77;16.37;;;;;;;5.86;87.68;99294.31;1724405;82;21621;-56
2020/12/30 09:01:51;;;;;;;16.10;11.43;;;;;;;5.94;87.33;99291.17;1730455;81;21161;-55
2020/12/30 09:04:19;;;;;;;19.52;13.13;;;;;;;5.80;87.77;99294.77;1720342;83;21184;-55
2020/12/30 09:06:49;;;;;;;22.67;14.50;;;;;;;5.85;87.93;99281.83;1718331;83;21164;-56
2020/12/30 09:09:20;;;;;;;16.25;11.73;;;;;;;5.90;87.80;99282.76;1732860;83;21201;-56
2020/12/30 09:11:50;;;;;;;13.60;9.40;;;;;;;5.89;87.98;99280.30;1733302;81;21161;-56
2020/12/30 09:14:23;;;;;;;16.05;10.08;;;;;;;5.94;88.12;99283.89;1718935;83;21343;-56
2020/12/30 09:17:11;;;;;;;13.70;10.58;;;;;;;6.05;87.87;99283.47;1719945;81;21155;-56
2020/12/30 09:19:35;;;;;;;16.73;11.15;;;;;;;6.02;88.04;99282.63;1704459;84;21184;-56
2020/12/30 09:22:12;;;;;;;13.20;9.15;;;;;;;6.08;87.94;99282.96;1722099;83;21583;-57
2020/12/30 09:24:41;;;;;;;14.43;9.83;;;;;;;6.14;87.71;99264.91;1729854;83;21567;-56
2020/12/30 09:27:20;;;;;;;17.00;8.63;;;;;;;6.09;87.89;99260.28;1728320;83;21571;-57
2020/12/30 09:30:10;;;;;;;14.25;9.70;;;;;;;6.12;87.77;99263.83;1733927;81;21198;-55
2020/12/30 09:32:39;;;;;;;12.13;8.93;;;;;;;6.20;87.42;99258.50;1712632;83;21159;-55
2020/12/30 09:35:09;;;;;;;14.98;10.03;;;;;;;6.09;87.70;99254.05;1733493;83;21169;-56
2020/12/30 09:37:37;;;;;;;13.78;9.63;;;;;;;6.14;87.65;99252.20;1735179;83;21544;-55
2020/12/30 09:40:12;;;;;;;15.50;10.25;;;;;;;6.24;87.35;99252.84;1726685;82;21198;-56
2020/12/30 09:42:41;;;;;;;17.05;11.40;;;;;;;6.20;87.44;99241.72;1740115;81;21176;-56
2020/12/30 09:45:11;;;;;;;21.10;14.07;;;;;;;6.20;87.55;99240.38;1735228;83;21139;-56
2020/12/30 09:47:39;;;;;;;17.45;11.88;;;;;;;6.33;87.21;99239.16;1704182;84;21531;-56
2020/12/30 09:50:12;;;;;;;18.52;13.25;;;;;;;6.32;87.14;99246.45;1718458;82;21687;-56
2020/12/30 09:52:45;;;;;;;32.93;18.55;;;;;;;6.23;87.37;99249.34;1738774;81;21209;-55
2020/12/30 09:55:13;;;;;;;16.20;10.90;;;;;;;6.31;87.17;99243.98;1768599;81;21196;-56
2020/12/30 09:57:42;;;;;;;17.75;11.38;;;;;;;6.30;86.89;99239.14;1709778;83;21163;-56
2020/12/30 10:00:10;;;;;;;15.98;10.85;;;;;;;6.26;87.09;99231.80;1697176;84;21173;-56
2020/12/30 10:02:38;;;;;;;15.78;10.88;;;;;;;6.30;87.02;99242.38;1701009;83;21171;-56
2020/12/30 10:05:06;;;;;;;15.78;10.60;;;;;;;6.20;86.71;99212.55;1730938;83;21785;-56
2020/12/30 10:07:35;;;;;;;15.95;10.58;;;;;;;6.35;86.83;99244.58;1762083;81;21121;-56
2020/12/30 10:10:03;;;;;;;13.35;9.30;;;;;;;6.27;87.07;99244.25;1744829;81;21186;-56
2020/12/30 10:12:37;;;;;;;16.40;11.45;;;;;;;6.30;86.91;99236.97;1756680;81;21180;-57
2020/12/30 10:15:02;;;;;;;14.80;9.65;;;;;;;6.37;86.75;99234.88;1768627;81;21169;-56
2020/12/30 10:17:30;;;;;;;15.72;10.55;;;;;;;6.33;86.88;99221.05;1769122;81;21172;-56
2020/12/30 10:19:58;;;;;;;14.93;10.05;;;;;;;6.27;87.03;99209.90;1753786;81;21155;-56
2020/12/30 10:22:26;;;;;;;16.62;11.73;;;;;;;6.32;86.76;99200.50;1753687;81;21163;-56
2020/12/30 10:24:56;;;;;;;16.87;10.78;;;;;;;6.37;86.63;99197.85;1758204;80;21300;-56
2020/12/30 10:27:24;;;;;;;14.43;10.05;;;;;;;6.28;86.92;99204.78;1728224;82;21160;-56
2020/12/30 10:29:52;;;;;;;14.90;10.50;;;;;;;6.30;86.80;99189.67;1728822;81;21659;-56
2020/12/30 10:32:20;;;;;;;16.17;12.28;;;;;;;6.35;86.57;99197.80;1713661;83;21150;-56
2020/12/30 10:34:50;;;;;;;17.15;10.65;;;;;;;6.32;86.75;99191.03;1724041;83;21613;-56
2020/12/30 10:37:18;;;;;;;14.78;9.78;;;;;;;6.38;86.78;99195.94;1734245;83;21223;-56
2020/12/30 10:39:48;;;;;;;13.75;9.25;;;;;;;6.41;86.46;99194.88;1731196;81;21166;-56
2020/12/30 10:42:16;;;;;;;16.77;11.68;;;;;;;6.40;86.40;99193.81;1737860;82;21147;-56
2020/12/30 10:44:45;;;;;;;16.73;11.43;;;;;;;6.35;86.58;99197.27;1697486;84;21208;-56
2020/12/30 10:47:13;;;;;;;13.05;9.48;;;;;;;6.45;86.27;99189.24;1706576;83;21642;-56
2020/12/30 10:49:41;;;;;;;15.25;9.80;;;;;;;6.36;86.15;99176.47;1725819;81;21171;-56
2020/12/30 10:52:09;;;;;;;16.73;9.88;;;;;;;6.32;86.37;99170.76;1749213;81;21161;-56
2020/12/30 10:54:42;;;;;;;11.45;8.33;;;;;;;6.40;86.16;99174.35;1764604;80;21620;-55
2020/12/30 10:57:06;;;;;;;13.93;9.90;;;;;;;6.21;86.07;99139.31;1754922;81;21120;-56
2020/12/30 10:59:34;;;;;;;13.30;9.33;;;;;;;6.34;86.36;99167.25;1714386;83;21934;-56
2020/12/30 11:02:03;;;;;;;14.38;9.40;;;;;;;6.37;86.36;99165.94;1718532;83;21636;-56
2020/12/30 11:04:31;;;;;;;11.75;8.50;;;;;;;6.45;86.03;99167.61;1715057;83;21258;-56
2020/12/30 11:07:01;;;;;;;12.33;8.58;;;;;;;6.40;86.11;99162.19;1711394;83;21526;-56
2020/12/30 11:09:29;;;;;;;11.73;8.25;;;;;;;6.40;86.18;99159.48;1697508;84;21604;-56
2020/12/30 11:11:59;;;;;;;12.37;8.20;;;;;;;6.50;85.94;99151.97;1715770;83;21571;-56
2020/12/30 11:14:28;;;;;;;12.00;9.35;;;;;;;6.49;85.98;99148.98;1726585;83;21184;-56
2020/12/30 11:16:56;;;;;;;12.80;8.85;;;;;;;6.42;86.20;99149.21;1720227;83;21129;-56
2020/12/30 11:19:24;;;;;;;13.62;9.40;;;;;;;6.43;86.05;99141.38;1724536;83;21189;-56
2020/12/30 11:21:53;;;;;;;12.90;8.08;;;;;;;6.49;85.86;99134.93;1724951;83;21685;-56
2020/12/30 11:24:21;;;;;;;14.23;10.23;;;;;;;6.44;85.97;99138.97;1724419;83;21191;-56
2020/12/30 11:26:49;;;;;;;15.95;9.30;;;;;;;6.49;85.96;99140.34;1709520;83;21166;-56
2020/12/30 11:29:17;;;;;;;12.43;9.65;;;;;;;6.52;85.71;99144.97;1689678;84;21309;-57
2020/12/30 11:31:46;;;;;;;11.90;8.48;;;;;;;6.44;85.89;99139.50;1706847;83;21113;-55
2020/12/30 11:34:14;;;;;;;14.23;9.68;;;;;;;6.50;85.79;99142.51;1674178;84;21209;-56
2020/12/30 11:36:42;;;;;;;13.32;9.28;;;;;;;6.57;85.56;99141.75;1714632;83;21323;-56
2020/12/30 11:39:10;;;;;;;12.43;9.03;;;;;;;6.52;85.72;99141.70;1721832;83;21173;-56
2020/12/30 11:41:38;;;;;;;12.98;9.15;;;;;;;6.46;85.88;99136.80;1720044;83;22503;-56
2020/12/30 11:44:06;;;;;;;10.40;7.97;;;;;;;6.56;85.60;99132.53;1717089;83;21120;-56